Carricito, Mexico

2:57 PM MST on February 22, 2017 (GMT -0700)
Valle Del Fuerte International | | Change Station

Elev 13 ft 25.68 °N, 109.08 °W | Updated 1 hour ago

Clear
Clear
81 °F
Feels Like 81 °F
N
5
Wind Variable Wind from SE

Today
High -- | Low -- °F
--% Chance of Precip.
Yesterday
High -- | Low -- °F
Precip. -- in
Pressure 29.88 in
Visibility 12.0 miles
Clouds Clear
Heat Index 81 °F
Dew Point 57 °F
Humidity 45%
Rainfall 0.00 in
Snow Depth Not available.
6:44 AM 6:14 PM
Waning Crescent, 15% visible
METAR MMLM 222045Z 14004KT 12SM SKC 27/14 A2988 RMK SLP118
Pressure 29.88 in
Visibility 12.0 miles
Clouds Clear
Heat Index 81 °F
Dew Point 57 °F
Humidity 45%
Rainfall 0.00 in
Snow Depth Not available.
6:44 AM 6:14 PM
Waning Crescent, 15% visible
METAR MMLM 222045Z 14004KT 12SM SKC 27/14 A2988 RMK SLP118

Get Your Daily Forecast Email!

Thanks for signing up!

Be on the lookout for a verification email in your inbox.

You'll start receiving the daily forecast at 8 AM.

×

10-Day Weather Forecast

No radar image for this location.
×

Almanac

Astronomy

Feb. 22, 2017 Rise Set
Actual Time
Civil Twilight
Nautical Twilight
Astronomical Twilight
Moon
Length of Visible Light
Length of Day
Tomorrow will be .
, % of the Moon is Illuminated

Today's Extremes

Country Highs Country Lows

Community

WunderPhotos

Upload Photos

1,962,540 photos uploaded!

WunderBlog® & News

Nearby

Air Quality

  Air Quality AQ Index Pollutant
Not available.

Snow Depth

Station Depth Elevation

Earthquake Activity

City Distance Mag. Time & Date
Minimum magnitude displayed is 2.5.

Coastal Water Temperatures

Place Temperature

Stations

Nearby Weather Stations

Station Location Temp. Windchill Dew Point Humidity Wind Precip. Elev Updated Type